Time;durP1;ratioP1;P1;durP2;ratioP2;P2;SDS_P1;SDS_P2;PMS_P1;PMS_P2;Temp;Humidity;BMP_temperature;BMP_pressure;BME280_temperature;BME280_humidity;BME280_pressure;Samples;Min_cycle;Max_cycle;Signal;HPM_P1;HPM_P2
2019/08/08 00:00:52;;;;;;;2.8;2.55;;;;;;;16.52;100;94935.61;;;;
2019/08/08 00:02:17;;;;;;;2.8;2.55;;;;;;;16.52;100;94935.61;;;;
2019/08/08 00:03:19;;;;;;;2.8;2.55;;;;;;;16.52;100;94935.61;;;;
2019/08/08 00:04:20;;;;;;;2.8;2.55;;;;;;;16.52;100;94935.61;;;;
2019/08/08 00:05:21;;;;;;;2.8;2.55;;;;;;;16.52;100;94935.61;;;;
2019/08/08 00:06:23;;;;;;;2.8;2.55;;;;;;;16.52;100;94935.61;;;;
2019/08/08 00:07:24;;;;;;;2.8;2.55;;;;;;;16.52;100;94935.61;;;;
2019/08/08 00:08:25;;;;;;;3.15;2.85;;;;;;;16.44;100;94948.83;;;;
2019/08/08 00:09:26;;;;;;;3.15;2.85;;;;;;;16.44;100;94948.83;;;;
2019/08/08 00:10:32;;;;;;;3.15;2.85;;;;;;;16.44;100;94948.83;;;;
2019/08/08 00:11:49;;;;;;;3.15;2.85;;;;;;;16.44;100;94948.83;;;;
2019/08/08 00:12:50;;;;;;;3.15;2.85;;;;;;;16.44;100;94948.83;;;;
2019/08/08 00:13:51;;;;;;;3.15;2.85;;;;;;;16.44;100;94948.83;;;;
2019/08/08 00:14:52;;;;;;;3.15;2.85;;;;;;;16.44;100;94948.83;;;;
2019/08/08 00:15:53;;;;;;;3.15;2.85;;;;;;;16.44;100;94948.83;;;;
2019/08/08 00:16:55;;;;;;;3.15;2.85;;;;;;;16.44;100;94948.83;;;;
2019/08/08 00:17:56;;;;;;;3.15;2.85;;;;;;;16.44;100;94948.83;;;;
2019/08/08 00:18:57;;;;;;;4.5;2.85;;;;;;;16.35;100;94949.72;;;;
2019/08/08 00:19:58;;;;;;;4.5;2.85;;;;;;;16.35;100;94949.72;;;;
2019/08/08 00:20:59;;;;;;;4.5;2.85;;;;;;;16.35;100;94949.72;;;;
2019/08/08 00:22:00;;;;;;;4.5;2.85;;;;;;;16.35;100;94949.72;;;;
2019/08/08 00:23:02;;;;;;;4.5;2.85;;;;;;;16.35;100;94949.72;;;;
2019/08/08 00:24:04;;;;;;;4.5;2.85;;;;;;;16.35;100;94949.72;;;;
2019/08/08 00:25:05;;;;;;;4.5;2.85;;;;;;;16.35;100;94949.72;;;;
2019/08/08 00:26:06;;;;;;;4.5;2.85;;;;;;;16.35;100;94949.72;;;;
2019/08/08 00:27:08;;;;;;;4.5;2.85;;;;;;;16.35;100;94949.72;;;;
2019/08/08 00:28:09;;;;;;;4.5;2.85;;;;;;;16.35;100;94949.72;;;;
2019/08/08 00:29:10;;;;;;;3.35;3.05;;;;;;;16.13;100;94954.58;;;;
2019/08/08 00:30:11;;;;;;;3.35;3.05;;;;;;;16.13;100;94954.58;;;;
2019/08/08 00:31:13;;;;;;;3.35;3.05;;;;;;;16.13;100;94954.58;;;;
2019/08/08 00:32:14;;;;;;;3.35;3.05;;;;;;;16.13;100;94954.58;;;;
2019/08/08 00:33:15;;;;;;;3.35;3.05;;;;;;;16.13;100;94954.58;;;;
2019/08/08 00:34:17;;;;;;;3.35;3.05;;;;;;;16.13;100;94954.58;;;;
2019/08/08 00:35:20;;;;;;;3.35;3.05;;;;;;;16.13;100;94954.58;;;;
2019/08/08 00:36:21;;;;;;;3.35;3.05;;;;;;;16.13;100;94954.58;;;;
2019/08/08 00:37:22;;;;;;;3.35;3.05;;;;;;;16.13;100;94954.58;;;;
2019/08/08 00:38:23;;;;;;;3.35;3.05;;;;;;;16.13;100;94954.58;;;;
2019/08/08 00:39:25;;;;;;;3.35;3.05;;;;;;;16.13;100;94954.58;;;;
2019/08/08 00:40:26;;;;;;;3.35;3.05;;;;;;;16.1;100;94958.37;;;;
2019/08/08 00:41:31;;;;;;;3.35;3.05;;;;;;;16.1;100;94958.37;;;;
2019/08/08 00:42:41;;;;;;;3.35;3.05;;;;;;;16.1;100;94958.37;;;;
2019/08/08 00:43:55;;;;;;;3.35;3.05;;;;;;;16.1;100;94958.37;;;;
2019/08/08 00:45:09;;;;;;;3.35;3.05;;;;;;;16.1;100;94958.37;;;;
2019/08/08 00:46:23;;;;;;;3.35;3.05;;;;;;;16.1;100;94958.37;;;;
2019/08/08 00:47:34;;;;;;;3.35;3.05;;;;;;;16.1;100;94958.37;;;;
2019/08/08 00:48:50;;;;;;;3.35;3.05;;;;;;;16.1;100;94958.37;;;;
2019/08/08 00:50:09;;;;;;;3.35;3.05;;;;;;;16.1;100;94958.37;;;;
2019/08/08 00:51:20;;;;;;;3.3;2.7;;;;;;;16;100;94956.11;;;;
2019/08/08 00:52:35;;;;;;;3.3;2.7;;;;;;;16;100;94956.11;;;;
2019/08/08 00:53:46;;;;;;;3.3;2.7;;;;;;;16;100;94956.11;;;;
2019/08/08 00:55:02;;;;;;;3.3;2.7;;;;;;;16;100;94956.11;;;;
2019/08/08 00:56:18;;;;;;;3.3;2.7;;;;;;;16;100;94956.11;;;;
2019/08/08 00:57:24;;;;;;;3.3;2.7;;;;;;;16;100;94956.11;;;;
2019/08/08 00:58:41;;;;;;;3.3;2.7;;;;;;;16;100;94956.11;;;;
2019/08/08 00:59:56;;;;;;;3.3;2.7;;;;;;;16;100;94956.11;;;;
2019/08/08 01:01:06;;;;;;;4.35;3.3;;;;;;;15.93;100;94956.95;;;;
2019/08/08 01:02:09;;;;;;;4.35;3.3;;;;;;;15.93;100;94956.95;;;;
2019/08/08 01:03:15;;;;;;;4.35;3.3;;;;;;;15.93;100;94956.95;;;;
2019/08/08 01:04:23;;;;;;;4.35;3.3;;;;;;;15.93;100;94956.95;;;;
2019/08/08 01:05:27;;;;;;;4.35;3.3;;;;;;;15.93;100;94956.95;;;;
2019/08/08 01:06:30;;;;;;;4.35;3.3;;;;;;;15.93;100;94956.95;;;;
2019/08/08 01:07:32;;;;;;;4.35;3.3;;;;;;;15.93;100;94956.95;;;;
2019/08/08 01:08:36;;;;;;;4.35;3.3;;;;;;;15.93;100;94956.95;;;;
2019/08/08 01:09:42;;;;;;;4.35;3.3;;;;;;;15.93;100;94956.95;;;;
2019/08/08 01:10:44;;;;;;;4.35;3.3;;;;;;;15.93;100;94956.95;;;;
2019/08/08 01:12:23;;;;;;;4.65;3.3;;;;;;;15.79;100;94964.61;;;;
2019/08/08 01:13:26;;;;;;;4.65;3.3;;;;;;;15.79;100;94964.61;;;;
2019/08/08 01:14:49;;;;;;;4.65;3.3;;;;;;;15.79;100;94964.61;;;;
2019/08/08 01:15:55;;;;;;;4.65;3.3;;;;;;;15.79;100;94964.61;;;;
2019/08/08 01:17:02;;;;;;;4.65;3.3;;;;;;;15.79;100;94964.61;;;;
2019/08/08 01:18:12;;;;;;;4.65;3.3;;;;;;;15.79;100;94964.61;;;;
2019/08/08 01:19:15;;;;;;;4.65;3.3;;;;;;;15.79;100;94964.61;;;;
2019/08/08 01:20:43;;;;;;;4.65;3.3;;;;;;;15.79;100;94964.61;;;;
2019/08/08 01:23:03;;;;;;;5.45;3.05;;;;;;;15.75;100;94975.76;;;;
2019/08/08 01:24:25;;;;;;;5.45;3.05;;;;;;;15.75;100;94975.76;;;;
2019/08/08 01:25:38;;;;;;;5.45;3.05;;;;;;;15.75;100;94975.76;;;;
2019/08/08 01:26:45;;;;;;;5.45;3.05;;;;;;;15.75;100;94975.76;;;;
2019/08/08 01:32:02;;;;;;;5.45;3.05;;;;;;;15.75;100;94975.76;;;;
2019/08/08 01:33:07;;;;;;;3.85;3;;;;;;;15.62;100;94984.91;;;;
2019/08/08 01:39:29;;;;;;;3.85;3;;;;;;;15.62;100;94984.91;;;;
2019/08/08 01:42:09;;;;;;;3.85;3;;;;;;;15.62;100;94984.91;;;;
2019/08/08 01:43:11;;;;;;;3.85;3;;;;;;;15.62;100;94984.91;;;;
2019/08/08 01:44:12;;;;;;;4.95;3.2;;;;;;;15.55;100;95002.48;;;;
2019/08/08 01:45:14;;;;;;;4.95;3.2;;;;;;;15.55;100;95002.48;;;;
2019/08/08 01:46:16;;;;;;;4.95;3.2;;;;;;;15.55;100;95002.48;;;;
2019/08/08 01:47:18;;;;;;;4.95;3.2;;;;;;;15.55;100;95002.48;;;;
2019/08/08 01:48:19;;;;;;;4.95;3.2;;;;;;;15.55;100;95002.48;;;;
2019/08/08 01:49:20;;;;;;;4.95;3.2;;;;;;;15.55;100;95002.48;;;;
2019/08/08 01:50:21;;;;;;;4.95;3.2;;;;;;;15.55;100;95002.48;;;;
2019/08/08 01:51:25;;;;;;;4.95;3.2;;;;;;;15.55;100;95002.48;;;;
2019/08/08 01:52:26;;;;;;;4.95;3.2;;;;;;;15.55;100;95002.48;;;;
2019/08/08 01:53:27;;;;;;;4.95;3.2;;;;;;;15.55;100;95002.48;;;;
2019/08/08 01:54:29;;;;;;;3.95;2.9;;;;;;;15.4;100;95010.6;;;;
2019/08/08 01:55:30;;;;;;;3.95;2.9;;;;;;;15.4;100;95010.6;;;;
2019/08/08 01:56:31;;;;;;;3.95;2.9;;;;;;;15.4;100;95010.6;;;;
2019/08/08 01:57:33;;;;;;;3.95;2.9;;;;;;;15.4;100;95010.6;;;;
2019/08/08 01:58:34;;;;;;;3.95;2.9;;;;;;;15.4;100;95010.6;;;;
2019/08/08 01:59:36;;;;;;;3.95;2.9;;;;;;;15.4;100;95010.6;;;;
2019/08/08 02:00:37;;;;;;;3.95;2.9;;;;;;;15.4;100;95010.6;;;;
2019/08/08 02:01:53;;;;;;;3.95;2.9;;;;;;;15.4;100;95010.6;;;;
2019/08/08 02:02:54;;;;;;;3.95;2.9;;;;;;;15.4;100;95010.6;;;;
2019/08/08 02:03:55;;;;;;;3.95;2.9;;;;;;;15.4;100;95010.6;;;;
2019/08/08 02:04:56;;;;;;;4.25;2.95;;;;;;;15.31;100;95017.29;;;;
2019/08/08 02:05:58;;;;;;;4.25;2.95;;;;;;;15.31;100;95017.29;;;;
2019/08/08 02:06:59;;;;;;;4.25;2.95;;;;;;;15.31;100;95017.29;;;;
2019/08/08 02:08:01;;;;;;;4.25;2.95;;;;;;;15.31;100;95017.29;;;;
2019/08/08 02:09:02;;;;;;;4.25;2.95;;;;;;;15.31;100;95017.29;;;;
2019/08/08 02:10:07;;;;;;;4.25;2.95;;;;;;;15.31;100;95017.29;;;;
2019/08/08 02:11:09;;;;;;;4.25;2.95;;;;;;;15.31;100;95017.29;;;;
2019/08/08 02:12:11;;;;;;;4.25;2.95;;;;;;;15.31;100;95017.29;;;;
2019/08/08 02:13:12;;;;;;;4.25;2.95;;;;;;;15.31;100;95017.29;;;;
2019/08/08 02:14:14;;;;;;;4.25;2.95;;;;;;;15.31;100;95017.29;;;;
2019/08/08 02:15:15;;;;;;;4.799999;3.45;;;;;;;15.15;100;95021.88;;;;
2019/08/08 02:16:17;;;;;;;4.799999;3.45;;;;;;;15.15;100;95021.88;;;;
2019/08/08 02:17:18;;;;;;;4.799999;3.45;;;;;;;15.15;100;95021.88;;;;
2019/08/08 02:18:19;;;;;;;4.799999;3.45;;;;;;;15.15;100;95021.88;;;;
2019/08/08 02:19:21;;;;;;;4.799999;3.45;;;;;;;15.15;100;95021.88;;;;
2019/08/08 02:20:22;;;;;;;4.799999;3.45;;;;;;;15.15;100;95021.88;;;;
2019/08/08 02:21:26;;;;;;;4.799999;3.45;;;;;;;15.15;100;95021.88;;;;
2019/08/08 02:22:28;;;;;;;4.799999;3.45;;;;;;;15.15;100;95021.88;;;;
2019/08/08 02:23:29;;;;;;;4.799999;3.45;;;;;;;15.15;100;95021.88;;;;
2019/08/08 02:24:31;;;;;;;4.799999;3.45;;;;;;;15.15;100;95021.88;;;;
2019/08/08 02:25:32;;;;;;;4.799999;3.45;;;;;;;15.15;100;95021.88;;;;
2019/08/08 02:26:33;;;;;;;3.6;3.2;;;;;;;15.13;100;95021.33;;;;
2019/08/08 02:27:34;;;;;;;3.6;3.2;;;;;;;15.13;100;95021.33;;;;
2019/08/08 02:28:36;;;;;;;3.6;3.2;;;;;;;15.13;100;95021.33;;;;
2019/08/08 02:29:37;;;;;;;3.6;3.2;;;;;;;15.13;100;95021.33;;;;
2019/08/08 02:30:38;;;;;;;3.6;3.2;;;;;;;15.13;100;95021.33;;;;
2019/08/08 02:31:42;;;;;;;3.6;3.2;;;;;;;15.13;100;95021.33;;;;
2019/08/08 02:32:43;;;;;;;3.6;3.2;;;;;;;15.13;100;95021.33;;;;
2019/08/08 02:33:44;;;;;;;3.6;3.2;;;;;;;15.13;100;95021.33;;;;
2019/08/08 02:34:46;;;;;;;3.6;3.2;;;;;;;15.13;100;95021.33;;;;
2019/08/08 02:35:47;;;;;;;3.6;3.2;;;;;;;15.13;100;95021.33;;;;
2019/08/08 02:36:48;;;;;;;4.95;3.8;;;;;;;15.1;100;95018.75;;;;
2019/08/08 02:37:49;;;;;;;4.95;3.8;;;;;;;15.1;100;95018.75;;;;
2019/08/08 02:38:50;;;;;;;4.95;3.8;;;;;;;15.1;100;95018.75;;;;
2019/08/08 02:39:51;;;;;;;4.95;3.8;;;;;;;15.1;100;95018.75;;;;
2019/08/08 02:40:52;;;;;;;4.95;3.8;;;;;;;15.1;100;95018.75;;;;
2019/08/08 02:41:54;;;;;;;4.95;3.8;;;;;;;15.1;100;95018.75;;;;
2019/08/08 02:42:56;;;;;;;4.95;3.8;;;;;;;15.1;100;95018.75;;;;
2019/08/08 02:43:57;;;;;;;4.95;3.8;;;;;;;15.1;100;95018.75;;;;
2019/08/08 02:44:59;;;;;;;4.95;3.8;;;;;;;15.1;100;95018.75;;;;
2019/08/08 02:46:00;;;;;;;4.95;3.8;;;;;;;15.1;100;95018.75;;;;
2019/08/08 02:47:15;;;;;;;7.349999;4.35;;;;;;;15.14;100;95019.31;;;;
2019/08/08 02:48:16;;;;;;;7.349999;4.35;;;;;;;15.14;100;95019.31;;;;
2019/08/08 02:49:17;;;;;;;7.349999;4.35;;;;;;;15.14;100;95019.31;;;;
2019/08/08 02:50:19;;;;;;;7.349999;4.35;;;;;;;15.14;100;95019.31;;;;
2019/08/08 02:51:20;;;;;;;7.349999;4.35;;;;;;;15.14;100;95019.31;;;;
2019/08/08 02:52:22;;;;;;;7.349999;4.35;;;;;;;15.14;100;95019.31;;;;
2019/08/08 02:53:23;;;;;;;7.349999;4.35;;;;;;;15.14;100;95019.31;;;;
2019/08/08 02:54:24;;;;;;;7.349999;4.35;;;;;;;15.14;100;95019.31;;;;
2019/08/08 02:55:25;;;;;;;7.349999;4.35;;;;;;;15.14;100;95019.31;;;;
2019/08/08 02:56:29;;;;;;;7.349999;4.35;;;;;;;15.14;100;95019.31;;;;
2019/08/08 02:57:30;;;;;;;7.349999;4.35;;;;;;;15.14;100;95019.31;;;;
2019/08/08 02:58:31;;;;;;;5.400001;4.900001;;;;;;;15.09;100;95008.82;;;;
2019/08/08 02:59:32;;;;;;;5.400001;4.900001;;;;;;;15.09;100;95008.82;;;;
2019/08/08 03:00:33;;;;;;;5.400001;4.900001;;;;;;;15.09;100;95008.82;;;;
2019/08/08 03:01:44;;;;;;;5.400001;4.900001;;;;;;;15.09;100;95008.82;;;;
2019/08/08 03:02:45;;;;;;;5.400001;4.900001;;;;;;;15.09;100;95008.82;;;;
2019/08/08 03:03:46;;;;;;;5.400001;4.900001;;;;;;;15.09;100;95008.82;;;;
2019/08/08 03:04:48;;;;;;;5.400001;4.900001;;;;;;;15.09;100;95008.82;;;;
2019/08/08 03:05:49;;;;;;;5.400001;4.900001;;;;;;;15.09;100;95008.82;;;;
2019/08/08 03:06:50;;;;;;;5.400001;4.900001;;;;;;;15.09;100;95008.82;;;;
2019/08/08 03:07:51;;;;;;;5.400001;4.900001;;;;;;;15.09;100;95008.82;;;;
2019/08/08 03:08:52;;;;;;;7.25;6.000001;;;;;;;15.19;100;94999.86;;;;
2019/08/08 03:09:53;;;;;;;7.25;6.000001;;;;;;;15.19;100;94999.86;;;;
2019/08/08 03:10:55;;;;;;;7.25;6.000001;;;;;;;15.19;100;94999.86;;;;
2019/08/08 03:11:56;;;;;;;7.25;6.000001;;;;;;;15.19;100;94999.86;;;;
2019/08/08 03:12:57;;;;;;;7.25;6.000001;;;;;;;15.19;100;94999.86;;;;
2019/08/08 03:13:58;;;;;;;7.25;6.000001;;;;;;;15.19;100;94999.86;;;;
2019/08/08 03:14:59;;;;;;;7.25;6.000001;;;;;;;15.19;100;94999.86;;;;
2019/08/08 03:16:00;;;;;;;7.25;6.000001;;;;;;;15.19;100;94999.86;;;;
2019/08/08 03:17:01;;;;;;;7.25;6.000001;;;;;;;15.19;100;94999.86;;;;
2019/08/08 03:18:03;;;;;;;7.25;6.000001;;;;;;;15.19;100;94999.86;;;;
2019/08/08 03:19:04;;;;;;;7;6.100001;;;;;;;15.17;100;95001.5;;;;
2019/08/08 03:20:05;;;;;;;7;6.100001;;;;;;;15.17;100;95001.5;;;;
2019/08/08 03:21:06;;;;;;;7;6.100001;;;;;;;15.17;100;95001.5;;;;
2019/08/08 03:22:08;;;;;;;7;6.100001;;;;;;;15.17;100;95001.5;;;;
2019/08/08 03:23:09;;;;;;;7;6.100001;;;;;;;15.17;100;95001.5;;;;
2019/08/08 03:24:10;;;;;;;7;6.100001;;;;;;;15.17;100;95001.5;;;;
2019/08/08 03:25:12;;;;;;;7;6.100001;;;;;;;15.17;100;95001.5;;;;
2019/08/08 03:26:13;;;;;;;7;6.100001;;;;;;;15.17;100;95001.5;;;;
2019/08/08 03:27:15;;;;;;;7;6.100001;;;;;;;15.17;100;95001.5;;;;
2019/08/08 03:28:16;;;;;;;7;6.100001;;;;;;;15.17;100;95001.5;;;;
2019/08/08 03:29:17;;;;;;;7;6.100001;;;;;;;15.17;100;95001.5;;;;
2019/08/08 03:30:18;;;;;;;6.900001;6.2;;;;;;;15.4;100;95007.87;;;;
2019/08/08 03:31:28;;;;;;;6.900001;6.2;;;;;;;15.4;100;95007.87;;;;
2019/08/08 03:32:29;;;;;;;6.900001;6.2;;;;;;;15.4;100;95007.87;;;;
2019/08/08 03:33:31;;;;;;;6.900001;6.2;;;;;;;15.4;100;95007.87;;;;
2019/08/08 03:34:32;;;;;;;6.900001;6.2;;;;;;;15.4;100;95007.87;;;;
2019/08/08 03:35:33;;;;;;;6.900001;6.2;;;;;;;15.4;100;95007.87;;;;
2019/08/08 03:36:34;;;;;;;6.900001;6.2;;;;;;;15.4;100;95007.87;;;;
2019/08/08 03:37:35;;;;;;;6.900001;6.2;;;;;;;15.4;100;95007.87;;;;
2019/08/08 03:38:37;;;;;;;6.900001;6.2;;;;;;;15.4;100;95007.87;;;;
2019/08/08 03:39:38;;;;;;;6.900001;6.2;;;;;;;15.4;100;95007.87;;;;
2019/08/08 03:40:40;;;;;;;6.45;5.700001;;;;;;;15.53;100;95013.23;;;;
2019/08/08 03:41:41;;;;;;;6.45;5.700001;;;;;;;15.53;100;95013.23;;;;
2019/08/08 03:42:42;;;;;;;6.45;5.700001;;;;;;;15.53;100;95013.23;;;;
2019/08/08 03:43:43;;;;;;;6.45;5.700001;;;;;;;15.53;100;95013.23;;;;
2019/08/08 03:44:45;;;;;;;6.45;5.700001;;;;;;;15.53;100;95013.23;;;;
2019/08/08 03:45:46;;;;;;;6.45;5.700001;;;;;;;15.53;100;95013.23;;;;
2019/08/08 03:46:47;;;;;;;6.45;5.700001;;;;;;;15.53;100;95013.23;;;;
2019/08/08 03:47:48;;;;;;;6.45;5.700001;;;;;;;15.53;100;95013.23;;;;
2019/08/08 03:48:49;;;;;;;6.45;5.700001;;;;;;;15.53;100;95013.23;;;;
2019/08/08 03:49:50;;;;;;;6.45;5.700001;;;;;;;15.53;100;95013.23;;;;
2019/08/08 03:50:51;;;;;;;5.4;4.799999;;;;;;;15.42;100;95024.78;;;;
2019/08/08 03:51:54;;;;;;;5.4;4.799999;;;;;;;15.42;100;95024.78;;;;
2019/08/08 03:52:55;;;;;;;5.4;4.799999;;;;;;;15.42;100;95024.78;;;;
2019/08/08 03:53:56;;;;;;;5.4;4.799999;;;;;;;15.42;100;95024.78;;;;
2019/08/08 03:54:57;;;;;;;5.4;4.799999;;;;;;;15.42;100;95024.78;;;;
2019/08/08 03:55:58;;;;;;;5.4;4.799999;;;;;;;15.42;100;95024.78;;;;
2019/08/08 03:57:00;;;;;;;5.4;4.799999;;;;;;;15.42;100;95024.78;;;;
2019/08/08 03:58:01;;;;;;;5.4;4.799999;;;;;;;15.42;100;95024.78;;;;
2019/08/08 03:59:02;;;;;;;5.4;4.799999;;;;;;;15.42;100;95024.78;;;;
2019/08/08 04:00:04;;;;;;;5.4;4.799999;;;;;;;15.42;100;95024.78;;;;
2019/08/08 04:01:05;;;;;;;5.4;4.799999;;;;;;;15.42;100;95024.78;;;;
2019/08/08 04:02:07;;;;;;;7.599999;5.1;;;;;;;15.13;100;95025.83;;;;
2019/08/08 04:03:08;;;;;;;7.599999;5.1;;;;;;;15.13;100;95025.83;;;;
2019/08/08 04:04:09;;;;;;;7.599999;5.1;;;;;;;15.13;100;95025.83;;;;
2019/08/08 04:05:11;;;;;;;7.599999;5.1;;;;;;;15.13;100;95025.83;;;;
2019/08/08 04:06:12;;;;;;;7.599999;5.1;;;;;;;15.13;100;95025.83;;;;
2019/08/08 04:07:13;;;;;;;7.599999;5.1;;;;;;;15.13;100;95025.83;;;;
2019/08/08 04:08:14;;;;;;;7.599999;5.1;;;;;;;15.13;100;95025.83;;;;
2019/08/08 04:09:15;;;;;;;7.599999;5.1;;;;;;;15.13;100;95025.83;;;;
2019/08/08 04:10:17;;;;;;;7.599999;5.1;;;;;;;15.13;100;95025.83;;;;
2019/08/08 04:11:18;;;;;;;7.599999;5.1;;;;;;;15.13;100;95025.83;;;;
2019/08/08 04:12:20;;;;;;;5.7;5.2;;;;;;;14.98;100;95042.67;;;;
2019/08/08 04:13:21;;;;;;;5.7;5.2;;;;;;;14.98;100;95042.67;;;;
2019/08/08 04:14:22;;;;;;;5.7;5.2;;;;;;;14.98;100;95042.67;;;;
2019/08/08 04:15:23;;;;;;;5.7;5.2;;;;;;;14.98;100;95042.67;;;;
2019/08/08 04:16:32;;;;;;;5.7;5.2;;;;;;;14.98;100;95042.67;;;;
2019/08/08 04:17:33;;;;;;;5.7;5.2;;;;;;;14.98;100;95042.67;;;;
2019/08/08 04:18:34;;;;;;;5.7;5.2;;;;;;;14.98;100;95042.67;;;;
2019/08/08 04:19:36;;;;;;;5.7;5.2;;;;;;;14.98;100;95042.67;;;;
2019/08/08 04:20:37;;;;;;;5.7;5.2;;;;;;;14.98;100;95042.67;;;;
2019/08/08 04:21:38;;;;;;;5.7;5.2;;;;;;;14.98;100;95042.67;;;;
2019/08/08 04:22:40;;;;;;;6.099999;5.45;;;;;;;14.85;100;95060.31;;;;
2019/08/08 04:23:41;;;;;;;6.099999;5.45;;;;;;;14.85;100;95060.31;;;;
2019/08/08 04:24:42;;;;;;;6.099999;5.45;;;;;;;14.85;100;95060.31;;;;
2019/08/08 04:25:43;;;;;;;6.099999;5.45;;;;;;;14.85;100;95060.31;;;;
2019/08/08 04:26:44;;;;;;;6.099999;5.45;;;;;;;14.85;100;95060.31;;;;
2019/08/08 04:27:48;;;;;;;6.099999;5.45;;;;;;;14.85;100;95060.31;;;;
2019/08/08 04:28:59;;;;;;;6.099999;5.45;;;;;;;14.85;100;95060.31;;;;
2019/08/08 04:30:03;;;;;;;6.099999;5.45;;;;;;;14.85;100;95060.31;;;;
2019/08/08 04:31:11;;;;;;;6.099999;5.45;;;;;;;14.85;100;95060.31;;;;
2019/08/08 04:32:13;;;;;;;6.099999;5.45;;;;;;;14.85;100;95060.31;;;;
2019/08/08 04:33:14;;;;;;;6.099999;5.45;;;;;;;14.85;100;95060.31;;;;
2019/08/08 04:34:15;;;;;;;7.199999;6.5;;;;;;;15.01;100;95080.06;;;;
2019/08/08 04:35:16;;;;;;;7.199999;6.5;;;;;;;15.01;100;95080.06;;;;
2019/08/08 04:36:17;;;;;;;7.199999;6.5;;;;;;;15.01;100;95080.06;;;;
2019/08/08 04:37:18;;;;;;;7.199999;6.5;;;;;;;15.01;100;95080.06;;;;
2019/08/08 04:38:20;;;;;;;7.199999;6.5;;;;;;;15.01;100;95080.06;;;;
2019/08/08 04:39:21;;;;;;;7.199999;6.5;;;;;;;15.01;100;95080.06;;;;
2019/08/08 04:40:22;;;;;;;7.199999;6.5;;;;;;;15.01;100;95080.06;;;;
2019/08/08 04:41:24;;;;;;;7.199999;6.5;;;;;;;15.01;100;95080.06;;;;
2019/08/08 04:42:25;;;;;;;7.199999;6.5;;;;;;;15.01;100;95080.06;;;;
2019/08/08 04:43:26;;;;;;;7.199999;6.5;;;;;;;15.01;100;95080.06;;;;
2019/08/08 04:44:27;;;;;;;7.400001;6.5;;;;;;;15.31;100;95088.01;;;;
2019/08/08 04:45:29;;;;;;;7.400001;6.5;;;;;;;15.31;100;95088.01;;;;
2019/08/08 04:46:30;;;;;;;7.400001;6.5;;;;;;;15.31;100;95088.01;;;;
2019/08/08 04:47:31;;;;;;;7.400001;6.5;;;;;;;15.31;100;95088.01;;;;
2019/08/08 04:48:32;;;;;;;7.400001;6.5;;;;;;;15.31;100;95088.01;;;;
2019/08/08 04:49:33;;;;;;;7.400001;6.5;;;;;;;15.31;100;95088.01;;;;
2019/08/08 04:50:35;;;;;;;7.400001;6.5;;;;;;;15.31;100;95088.01;;;;
2019/08/08 04:51:48;;;;;;;7.400001;6.5;;;;;;;15.31;100;95088.01;;;;
2019/08/08 04:52:49;;;;;;;7.400001;6.5;;;;;;;15.31;100;95088.01;;;;
2019/08/08 04:53:50;;;;;;;7.400001;6.5;;;;;;;15.31;100;95088.01;;;;
2019/08/08 04:54:51;;;;;;;9.3;7.6;;;;;;;15.72;100;95085.63;;;;
2019/08/08 04:55:53;;;;;;;9.3;7.6;;;;;;;15.72;100;95085.63;;;;
2019/08/08 04:56:54;;;;;;;9.3;7.6;;;;;;;15.72;100;95085.63;;;;
2019/08/08 04:57:55;;;;;;;9.3;7.6;;;;;;;15.72;100;95085.63;;;;
2019/08/08 04:58:56;;;;;;;9.3;7.6;;;;;;;15.72;100;95085.63;;;;
2019/08/08 04:59:58;;;;;;;9.3;7.6;;;;;;;15.72;100;95085.63;;;;
2019/08/08 05:00:59;;;;;;;9.3;7.6;;;;;;;15.72;100;95085.63;;;;
2019/08/08 05:02:00;;;;;;;9.3;7.6;;;;;;;15.72;100;95085.63;;;;
2019/08/08 05:03:01;;;;;;;9.3;7.6;;;;;;;15.72;100;95085.63;;;;
2019/08/08 05:04:02;;;;;;;9.3;7.6;;;;;;;15.72;100;95085.63;;;;
2019/08/08 05:05:04;;;;;;;9.3;7.6;;;;;;;15.72;100;95085.63;;;;
2019/08/08 05:06:05;;;;;;;7.349999;6.6;;;;;;;15.99;100;95073.91;;;;
